Impacts METAR Board INFO
IDs:

KCLE - Cleveland/Hopkins In, OH, US

Updated at: 1537 UTC 25 Feb 2018
Potential Impact None Slight Moderate High
Time25/03Z 25/04Z 25/05Z 25/06Z 25/07Z 25/08Z 25/09Z 25/10Z 25/11Z 25/12Z 25/13Z 25/14Z 25/15Z
VIS9 7 9 8 9 10 10 10 7 6 10 10 10
CIG70 60 70 60 46 100 12 40 22 23 -- 140 250
CoverOVCOVCOVCOVCOVCOVCOVCOVCOVCOVCSCTBKNBKN
FltCatVFRVFRVFRVFRVFRVFRMVFRVFRMVFRMVFRVFRVFRVFR
WX---RA-RA-RA-RA-------RA-RA------
WDir100120140140130140150190220250250250240
WSpd7 5 9 9 10 19 11 13 14 32 31 26 19
WGst-- -- -- -- -- -- -- 21 -- 47 40 34 28
Raw hourly METARs
KCLE 250251Z 10007KT 9SM SCT050 OVC070 07/06 A2993 RMK AO2 SLP140 T00720056 56042 $
KCLE 250351Z 12005KT 7SM -RA FEW035 BKN060 OVC070 08/06 A2989 RMK AO2 RAB10 SLP127 P0002 T00780061 $
KCLE 250451Z 14009KT 9SM -RA FEW010 BKN070 OVC090 09/08 A2984 RMK AO2 SLP107 P0009 T00890078 400890028 $
KCLE 250551Z 14009KT 8SM -RA BKN060 OVC075 09/08 A2978 RMK AO2 SLP087 P0006 60017 T00940083 10094 20044 58050 $
KCLE 250651Z 13010KT 9SM -RA BKN046 OVC085 10/09 A2972 RMK AO2 PRESFR SLP068 P0006 T01000089 $
KCLE 250751Z 14019KT 10SM FEW042 BKN100 OVC150 12/10 A2960 RMK AO2 PK WND 15027/0737 RAE43 SLP025 P0006 T01170100 $
KCLE 250851Z 15011KT 10SM BKN012 OVC017 11/10 A2960 RMK AO2 SLP027 60012 T01110100 55058 $
KCLE 250951Z 19013G21KT 10SM FEW030 BKN040 OVC060 14/12 A2959 RMK AO2 SLP022 T01390117 $
KCLE 251051Z 22014KT 7SM -RA FEW016 BKN022 OVC028 15/12 A2961 RMK AO2 RAB51 SLP029 P0000 T01500122 $
KCLE 251151Z 25032G47KT 6SM -RA BKN023 OVC032 14/11 A2968 RMK AO2 PK WND 26047/1150 RAE01B47 PRESRR SLP051 P0000 60012 70047 T01390111 10156 20094 53023 $
KCLE 251251Z 25031G40KT 10SM SCT055 10/05 A2975 RMK AO2 PK WND 24042/1212 RAE02 PRESRR SLP077 P0001 T01000050 $
KCLE 251351Z 25026G34KT 10SM FEW025 BKN140 08/03 A2982 RMK AO2 PK WND 25038/1257 SLP101 T00830033 $
KCLE 251451Z 24019G28KT 10SM BKN250 08/03 A2985 RMK AO2 PK WND 26033/1356 SLP110 60001 T00830033 51056